createdAt,value
2023-03-11T00:01:44.256Z,11.39
2023-03-11T00:04:17.373Z,11.47
2023-03-11T00:06:50.687Z,11.53
2023-03-11T00:09:23.657Z,11.55
2023-03-11T00:11:56.579Z,11.40
2023-03-11T00:14:30.043Z,11.33
2023-03-11T00:17:03.122Z,11.40
2023-03-11T00:19:36.058Z,11.46
2023-03-11T00:22:09.560Z,11.62
2023-03-11T00:24:42.898Z,11.64
2023-03-11T00:27:16.084Z,11.74
2023-03-11T00:29:49.926Z,11.80
2023-03-11T00:32:23.120Z,11.83
2023-03-11T00:34:56.870Z,11.83
2023-03-11T00:37:30.243Z,11.83
2023-03-11T00:40:11.409Z,11.85
2023-03-11T00:42:45.703Z,11.77
2023-03-11T00:45:20.128Z,11.85
2023-03-11T00:47:54.020Z,11.85
2023-03-11T00:50:30.929Z,11.96
2023-03-11T00:53:05.019Z,11.92
2023-03-11T00:55:38.679Z,12.08
2023-03-11T00:58:14.362Z,12.11
2023-03-11T01:00:52.386Z,12.05
2023-03-11T01:03:25.522Z,12.12
2023-03-11T01:05:58.526Z,11.98
2023-03-11T01:08:32.246Z,12.06
2023-03-11T01:11:06.484Z,12.02
2023-03-11T01:13:40.536Z,12.05
2023-03-11T01:16:13.323Z,11.96
2023-03-11T01:18:46.160Z,12.04
2023-03-11T01:21:19.204Z,12.00
2023-03-11T01:23:52.592Z,11.92
2023-03-11T01:26:25.591Z,11.99
2023-03-11T01:29:02.143Z,11.99
2023-03-11T01:31:36.220Z,12.01
2023-03-11T01:34:09.291Z,12.02
2023-03-11T01:36:42.369Z,11.98
2023-03-11T01:39:15.818Z,11.99
2023-03-11T01:41:49.289Z,12.05
2023-03-11T01:44:22.227Z,12.04
2023-03-11T01:47:00.950Z,11.98
2023-03-11T01:49:42.629Z,12.02
2023-03-11T01:52:15.859Z,12.06
2023-03-11T01:54:55.979Z,12.11
2023-03-11T01:57:29.003Z,12.08
2023-03-11T02:00:06.564Z,12.18
2023-03-11T02:02:53.337Z,12.18
2023-03-11T02:05:27.335Z,12.06
2023-03-11T02:08:02.300Z,11.93
2023-03-11T02:10:39.596Z,11.84
2023-03-11T02:13:14.191Z,11.89
2023-03-11T02:15:47.729Z,11.87
2023-03-11T02:18:22.825Z,11.81
2023-03-11T02:21:30.937Z,11.93
2023-03-11T02:24:40.650Z,12.01
2023-03-11T02:27:18.208Z,12.02
2023-03-11T02:29:54.762Z,12.10
2023-03-11T02:32:29.560Z,12.09
2023-03-11T02:35:04.127Z,12.12
2023-03-11T02:37:37.463Z,12.28
2023-03-11T02:40:44.302Z,12.32
2023-03-11T02:43:21.570Z,12.27
2023-03-11T02:45:56.228Z,12.28
2023-03-11T02:48:32.336Z,12.26
2023-03-11T02:51:07.024Z,12.14
2023-03-11T02:53:54.236Z,12.16
2023-03-11T02:56:27.808Z,12.17
2023-03-11T02:59:01.146Z,12.12
2023-03-11T03:01:35.247Z,12.24
2023-03-11T03:04:08.575Z,12.29
2023-03-11T03:06:42.161Z,12.32
2023-03-11T03:09:16.163Z,12.33
2023-03-11T03:11:50.692Z,12.32
2023-03-11T03:14:24.383Z,12.31
2023-03-11T03:16:57.514Z,12.21
2023-03-11T03:19:30.899Z,12.20
2023-03-11T03:22:04.579Z,12.13
2023-03-11T03:24:38.896Z,12.08
2023-03-11T03:27:12.010Z,12.03
2023-03-11T03:29:46.103Z,12.00
2023-03-11T03:32:19.428Z,11.94
2023-03-11T03:35:00.007Z,12.00
2023-03-11T03:37:44.083Z,11.97
2023-03-11T03:40:17.553Z,11.82
2023-03-11T03:42:51.280Z,11.73
2023-03-11T03:45:24.692Z,11.67
2023-03-11T03:47:59.446Z,11.70
2023-03-11T03:50:32.538Z,11.78
2023-03-11T03:53:06.858Z,11.63
2023-03-11T03:55:40.652Z,11.63
2023-03-11T03:58:14.319Z,11.77
2023-03-11T04:00:49.965Z,11.83
2023-03-11T04:03:23.563Z,11.86
2023-03-11T04:06:17.893Z,11.84
2023-03-11T04:08:52.916Z,11.86
2023-03-11T04:11:27.517Z,11.87
2023-03-11T04:14:03.074Z,11.78
2023-03-11T04:16:36.972Z,11.80
2023-03-11T04:19:13.672Z,11.74
2023-03-11T04:21:46.551Z,11.69
2023-03-11T04:24:25.486Z,11.63
2023-03-11T04:26:59.516Z,11.54
2023-03-11T04:29:33.315Z,11.49
2023-03-11T04:32:07.127Z,11.38
2023-03-11T04:34:41.475Z,11.27
2023-03-11T04:37:15.152Z,11.31
2023-03-11T04:39:48.531Z,11.20
2023-03-11T04:42:22.110Z,11.08
2023-03-11T04:44:55.628Z,11.05
2023-03-11T04:47:29.332Z,11.09
2023-03-11T04:50:03.084Z,11.13
2023-03-11T04:52:36.815Z,11.07
2023-03-11T04:55:10.517Z,11.09
2023-03-11T04:57:44.642Z,11.08
2023-03-11T05:00:23.319Z,11.07
2023-03-11T05:02:56.656Z,11.04
2023-03-11T05:05:29.949Z,10.94
2023-03-11T05:08:03.402Z,10.83
2023-03-11T05:10:37.372Z,10.79
2023-03-11T05:13:12.019Z,10.91
2023-03-11T05:15:46.735Z,10.94
2023-03-11T05:18:20.404Z,10.95
2023-03-11T05:20:54.493Z,11.03
2023-03-11T05:23:30.257Z,11.09
2023-03-11T05:26:04.831Z,11.19
2023-03-11T05:28:38.307Z,11.28
2023-03-11T05:31:13.349Z,11.28
2023-03-11T05:33:46.970Z,11.39
2023-03-11T05:36:20.639Z,11.36
2023-03-11T05:38:54.190Z,11.47
2023-03-11T05:41:27.472Z,11.52
2023-03-11T05:44:00.806Z,11.67
2023-03-11T05:46:34.080Z,11.79
2023-03-11T05:49:07.554Z,11.85
2023-03-11T05:51:41.484Z,11.99
2023-03-11T05:54:15.479Z,12.02
2023-03-11T05:56:51.453Z,12.17
2023-03-11T05:59:25.266Z,12.42
2023-03-11T06:02:05.891Z,12.56
2023-03-11T06:04:39.085Z,12.62
2023-03-11T06:07:15.447Z,12.73
2023-03-11T06:09:53.087Z,12.74
2023-03-11T06:12:26.505Z,12.78
2023-03-11T06:15:16.614Z,12.76
2023-03-11T06:17:50.148Z,12.52
2023-03-11T06:20:24.586Z,12.73
2023-03-11T06:22:58.881Z,12.82
2023-03-11T06:25:32.316Z,12.80
2023-03-11T06:28:06.332Z,12.93
2023-03-11T06:30:40.045Z,13.09
2023-03-11T06:33:19.299Z,13.31
2023-03-11T06:36:04.565Z,13.42
2023-03-11T06:38:38.243Z,13.55
2023-03-11T06:41:12.272Z,13.69
2023-03-11T06:43:46.144Z,13.83
2023-03-11T06:46:22.691Z,14.00
2023-03-11T06:48:57.772Z,14.04
2023-03-11T06:51:31.367Z,14.27
2023-03-11T06:54:05.281Z,14.37
2023-03-11T06:56:39.356Z,14.44
2023-03-11T06:59:14.061Z,14.48
2023-03-11T07:01:48.191Z,14.52
2023-03-11T07:04:22.057Z,14.60
2023-03-11T07:06:55.528Z,14.62
2023-03-11T07:09:30.136Z,14.66
2023-03-11T07:12:04.442Z,14.75
2023-03-11T07:14:41.438Z,14.83
2023-03-11T07:17:14.717Z,14.93
2023-03-11T07:19:53.692Z,15.02
2023-03-11T07:22:27.578Z,15.17
2023-03-11T07:25:00.907Z,15.17
2023-03-11T07:27:34.267Z,15.20
2023-03-11T07:30:08.359Z,15.16
2023-03-11T07:32:42.072Z,15.15
2023-03-11T07:35:15.612Z,15.32
2023-03-11T07:37:49.264Z,15.50
2023-03-11T07:40:22.818Z,15.54
2023-03-11T07:42:56.394Z,15.51
2023-03-11T07:45:29.887Z,15.45
2023-03-11T07:48:02.885Z,15.41
2023-03-11T07:50:36.153Z,15.51
2023-03-11T07:53:09.241Z,15.60
2023-03-11T07:55:43.033Z,15.63
2023-03-11T07:58:16.223Z,15.73
2023-03-11T08:00:49.793Z,15.97
2023-03-11T08:03:22.924Z,16.16
2023-03-11T08:05:55.929Z,16.24
2023-03-11T08:08:28.790Z,16.33
2023-03-11T08:11:04.628Z,16.39
2023-03-11T08:13:37.614Z,16.34
2023-03-11T08:16:11.940Z,16.43
2023-03-11T08:18:45.693Z,16.63
2023-03-11T08:21:21.474Z,16.67
2023-03-11T08:23:59.252Z,16.79
2023-03-11T08:26:33.441Z,16.92
2023-03-11T08:29:06.703Z,16.86
2023-03-11T08:31:39.962Z,16.98
2023-03-11T08:34:14.411Z,17.05
2023-03-11T08:36:47.950Z,17.22
2023-03-11T08:39:20.900Z,17.27
2023-03-11T08:41:54.200Z,17.35
2023-03-11T08:44:28.061Z,17.51
2023-03-11T08:47:02.715Z,17.57
2023-03-11T08:49:36.843Z,17.52
2023-03-11T08:52:10.660Z,17.52
2023-03-11T08:54:44.595Z,17.59
2023-03-11T08:57:18.591Z,17.62
2023-03-11T08:59:52.427Z,17.60
2023-03-11T09:02:25.768Z,17.82
2023-03-11T09:04:59.159Z,17.90
2023-03-11T09:07:33.084Z,17.94
2023-03-11T09:10:08.431Z,17.90
2023-03-11T09:12:41.628Z,17.94
2023-03-11T09:15:15.041Z,17.96
2023-03-11T09:17:48.558Z,17.99
2023-03-11T09:20:22.633Z,18.03
2023-03-11T09:22:55.686Z,18.01
2023-03-11T09:25:29.387Z,18.01
2023-03-11T09:28:02.793Z,18.01
2023-03-11T09:30:36.581Z,18.01
2023-03-11T09:33:11.339Z,17.99
2023-03-11T09:35:45.727Z,18.01
2023-03-11T09:38:19.378Z,18.00
2023-03-11T09:41:19.702Z,18.01
2023-03-11T09:44:22.998Z,17.95
2023-03-11T09:47:23.806Z,17.99
2023-03-11T09:50:13.586Z,17.93
2023-03-11T09:53:10.058Z,17.89
2023-03-11T09:55:55.521Z,17.90
2023-03-11T09:58:53.209Z,17.91
2023-03-11T10:01:36.110Z,17.94
2023-03-11T10:04:19.552Z,18.05
2023-03-11T10:06:53.672Z,18.29
2023-03-11T10:09:48.988Z,18.50
2023-03-11T10:12:56.325Z,18.62
2023-03-11T10:15:57.929Z,18.76
2023-03-11T10:19:04.244Z,18.84
2023-03-11T10:21:53.342Z,18.81
2023-03-11T10:24:28.580Z,18.90
2023-03-11T10:27:11.595Z,18.90
2023-03-11T10:29:50.740Z,18.74
2023-03-11T10:32:47.742Z,18.86
2023-03-11T10:35:41.651Z,18.86
2023-03-11T10:38:20.290Z,18.74
2023-03-11T10:41:00.254Z,18.68
2023-03-11T10:43:59.557Z,18.50
2023-03-11T10:46:33.375Z,18.30
2023-03-11T10:49:08.100Z,18.33
2023-03-11T10:51:41.878Z,18.28
2023-03-11T10:54:27.759Z,18.32
2023-03-11T10:57:04.193Z,18.31
2023-03-11T10:59:54.980Z,18.29
2023-03-11T11:02:29.890Z,18.24
2023-03-11T11:05:22.427Z,18.10
2023-03-11T11:08:11.057Z,17.98
2023-03-11T11:10:58.879Z,18.11
2023-03-11T11:13:35.168Z,18.13
2023-03-11T11:16:22.532Z,18.18
2023-03-11T11:19:02.978Z,18.09
2023-03-11T11:21:41.210Z,18.19
2023-03-11T11:24:13.986Z,18.32
2023-03-11T11:27:19.707Z,18.28
2023-03-11T11:30:12.773Z,18.27
2023-03-11T11:32:46.827Z,18.34
2023-03-11T11:35:21.423Z,18.23
2023-03-11T11:38:04.829Z,18.11
2023-03-11T11:40:38.589Z,18.11
2023-03-11T11:43:44.434Z,18.02
2023-03-11T11:46:24.573Z,18.00
2023-03-11T11:49:10.348Z,17.95
2023-03-11T11:52:06.140Z,17.93
2023-03-11T11:54:50.707Z,17.91
2023-03-11T11:57:26.512Z,17.87
2023-03-11T12:00:00.128Z,17.82
2023-03-11T12:02:59.284Z,17.78
2023-03-11T12:05:38.901Z,17.78
2023-03-11T12:08:39.142Z,17.73
2023-03-11T12:11:21.455Z,17.80
2023-03-11T12:14:12.570Z,17.79
2023-03-11T12:17:04.366Z,17.76
2023-03-11T12:19:43.320Z,17.76
2023-03-11T12:22:46.240Z,17.80
2023-03-11T12:25:50.314Z,17.81
2023-03-11T12:28:34.658Z,17.81
2023-03-11T12:31:12.252Z,17.95
2023-03-11T12:33:53.008Z,18.08
2023-03-11T12:36:39.265Z,18.22
2023-03-11T12:39:31.907Z,18.28
2023-03-11T12:42:25.561Z,18.32
2023-03-11T12:45:35.038Z,18.35
2023-03-11T12:48:40.112Z,18.32
2023-03-11T12:52:07.058Z,18.18
2023-03-11T12:54:41.895Z,18.19
2023-03-11T12:57:20.575Z,18.29
2023-03-11T13:00:29.580Z,18.27
2023-03-11T13:03:30.078Z,18.22
2023-03-11T13:06:21.241Z,18.28
2023-03-11T13:09:01.594Z,18.20
2023-03-11T13:11:41.304Z,18.21
2023-03-11T13:14:34.285Z,18.18
2023-03-11T13:17:31.556Z,18.16
2023-03-11T13:20:05.763Z,18.11
2023-03-11T13:23:06.804Z,18.05
2023-03-11T13:25:41.944Z,17.97
2023-03-11T13:28:32.934Z,17.88
2023-03-11T13:31:33.047Z,17.89
2023-03-11T13:34:20.449Z,17.89
2023-03-11T13:37:08.772Z,17.92
2023-03-11T13:40:03.562Z,17.91
2023-03-11T13:42:51.173Z,17.86
2023-03-11T13:45:38.241Z,17.79
2023-03-11T13:48:22.797Z,17.71
2023-03-11T13:51:25.231Z,17.58
2023-03-11T13:54:15.401Z,17.60
2023-03-11T13:57:00.709Z,17.59
2023-03-11T13:59:38.939Z,17.58
2023-03-11T14:02:12.509Z,17.64
2023-03-11T14:05:05.314Z,17.70
2023-03-11T14:07:39.863Z,17.76
2023-03-11T14:10:19.161Z,17.72
2023-03-11T14:12:53.261Z,17.65
2023-03-11T14:15:30.577Z,17.54
2023-03-11T14:18:30.261Z,17.50
2023-03-11T14:21:05.364Z,17.43
2023-03-11T14:23:46.520Z,17.37
2023-03-11T14:26:32.275Z,17.28
2023-03-11T14:29:15.414Z,17.19
2023-03-11T14:31:50.665Z,17.09
2023-03-11T14:34:26.771Z,16.98
2023-03-11T14:37:04.800Z,16.86
2023-03-11T14:39:40.366Z,16.83
2023-03-11T14:42:27.171Z,16.75
2023-03-11T14:45:08.621Z,16.85
2023-03-11T14:47:46.081Z,16.90
2023-03-11T14:50:28.314Z,16.82
2023-03-11T14:53:04.724Z,16.75
2023-03-11T14:55:51.641Z,16.63
2023-03-11T14:58:36.759Z,16.52
2023-03-11T15:01:28.184Z,16.40
2023-03-11T15:04:22.944Z,16.22
2023-03-11T15:06:57.959Z,16.01
2023-03-11T15:09:34.176Z,15.88
2023-03-11T15:12:09.474Z,15.75
2023-03-11T15:14:53.434Z,15.64
2023-03-11T15:17:39.485Z,15.46
2023-03-11T15:20:38.021Z,15.39
2023-03-11T15:23:33.083Z,15.23
2023-03-11T15:26:07.795Z,15.06
2023-03-11T15:28:42.417Z,15.00
2023-03-11T15:31:43.588Z,14.86
2023-03-11T15:34:28.587Z,14.82
2023-03-11T15:37:06.910Z,14.71
2023-03-11T15:39:39.841Z,14.60
2023-03-11T15:42:24.924Z,14.52
2023-03-11T15:45:18.065Z,14.46
2023-03-11T15:47:52.136Z,14.25
2023-03-11T15:50:43.125Z,14.20
2023-03-11T15:53:23.838Z,14.05
2023-03-11T15:56:07.765Z,13.90
2023-03-11T15:58:42.182Z,13.87
2023-03-11T16:01:18.955Z,13.73
2023-03-11T16:03:52.553Z,13.62
2023-03-11T16:06:26.153Z,13.54
2023-03-11T16:09:13.462Z,13.51
2023-03-11T16:11:47.249Z,13.38
2023-03-11T16:14:22.949Z,13.30
2023-03-11T16:16:56.677Z,13.20
2023-03-11T16:19:30.402Z,13.15
2023-03-11T16:22:05.629Z,13.12
2023-03-11T16:24:39.699Z,13.10
2023-03-11T16:27:16.874Z,13.05
2023-03-11T16:29:50.540Z,13.03
2023-03-11T16:32:24.452Z,13.01
2023-03-11T16:34:57.611Z,13.03
2023-03-11T16:37:31.208Z,13.05
2023-03-11T16:40:06.382Z,12.99
2023-03-11T16:42:40.327Z,13.11
2023-03-11T16:45:16.052Z,12.98
2023-03-11T16:47:49.686Z,13.10
2023-03-11T16:50:24.763Z,13.11
2023-03-11T16:52:59.124Z,13.06
2023-03-11T16:55:32.481Z,13.10
2023-03-11T16:58:05.721Z,13.09
2023-03-11T17:00:42.393Z,13.08
2023-03-11T17:03:21.982Z,12.96
2023-03-11T17:06:05.923Z,12.97
2023-03-11T17:08:39.605Z,12.89
2023-03-11T17:11:25.242Z,12.77
2023-03-11T17:14:15.202Z,12.58
2023-03-11T17:16:52.209Z,12.63
2023-03-11T17:19:25.951Z,12.59
2023-03-11T17:21:59.767Z,12.44
2023-03-11T17:24:34.191Z,12.31
2023-03-11T17:27:09.751Z,12.16
2023-03-11T17:29:43.449Z,11.98
2023-03-11T17:32:17.806Z,11.93
2023-03-11T17:34:51.583Z,11.84
2023-03-11T17:37:25.324Z,11.75
2023-03-11T17:39:58.817Z,11.66
2023-03-11T17:42:32.695Z,11.51
2023-03-11T17:45:06.892Z,11.47
2023-03-11T17:47:40.398Z,11.38
2023-03-11T17:50:14.765Z,11.28
2023-03-11T17:52:49.862Z,11.19
2023-03-11T17:55:23.741Z,11.04
2023-03-11T17:57:57.275Z,11.02
2023-03-11T18:00:31.111Z,10.98
2023-03-11T18:03:04.831Z,10.90
2023-03-11T18:05:38.565Z,10.69
2023-03-11T18:08:11.910Z,10.84
2023-03-11T18:10:51.132Z,10.92
2023-03-11T18:13:24.395Z,11.02
2023-03-11T18:16:08.693Z,11.04
2023-03-11T18:18:42.952Z,11.14
2023-03-11T18:21:22.029Z,11.22
2023-03-11T18:24:03.163Z,11.18
2023-03-11T18:26:36.514Z,11.31
2023-03-11T18:29:10.005Z,11.29
2023-03-11T18:31:43.521Z,11.17
2023-03-11T18:34:16.652Z,11.18
2023-03-11T18:36:50.478Z,11.16
2023-03-11T18:39:24.167Z,11.18
2023-03-11T18:41:57.657Z,11.15
2023-03-11T18:44:31.660Z,11.10
2023-03-11T18:47:05.494Z,11.16
2023-03-11T18:49:38.551Z,11.20
2023-03-11T18:52:12.396Z,11.36
2023-03-11T18:54:45.878Z,11.24
2023-03-11T18:57:19.853Z,11.28
2023-03-11T18:59:53.728Z,11.34
2023-03-11T19:02:28.194Z,11.23
2023-03-11T19:05:01.912Z,11.22
2023-03-11T19:07:36.131Z,11.35
2023-03-11T19:10:10.144Z,11.32
2023-03-11T19:12:45.556Z,11.18
2023-03-11T19:15:19.038Z,11.22
2023-03-11T19:18:05.907Z,11.18
2023-03-11T19:20:43.174Z,11.19
2023-03-11T19:23:23.153Z,11.18
2023-03-11T19:26:02.964Z,11.10
2023-03-11T19:28:38.941Z,11.13
2023-03-11T19:31:12.319Z,11.10
2023-03-11T19:33:53.206Z,10.99
2023-03-11T19:36:26.477Z,10.91
2023-03-11T19:39:04.027Z,10.98
2023-03-11T19:41:37.577Z,10.98
2023-03-11T19:44:11.913Z,10.91
2023-03-11T19:46:45.587Z,10.85
2023-03-11T19:49:18.766Z,10.80
2023-03-11T19:51:53.634Z,10.54
2023-03-11T19:54:27.786Z,10.58
2023-03-11T19:57:03.221Z,10.44
2023-03-11T19:59:37.212Z,10.32
2023-03-11T20:02:17.049Z,10.20
2023-03-11T20:04:51.062Z,10.17
2023-03-11T20:07:24.702Z,10.15
2023-03-11T20:09:58.646Z,10.11
2023-03-11T20:12:32.064Z,10.07
2023-03-11T20:15:06.827Z,9.99
2023-03-11T20:17:40.215Z,9.94
2023-03-11T20:20:14.430Z,9.77
2023-03-11T20:22:58.032Z,9.71
2023-03-11T20:25:32.937Z,9.70
2023-03-11T20:28:06.244Z,9.65
2023-03-11T20:30:41.503Z,9.51
2023-03-11T20:33:15.075Z,9.38
2023-03-11T20:35:48.422Z,9.31
2023-03-11T20:38:21.529Z,9.37
2023-03-11T20:41:07.293Z,9.29
2023-03-11T20:43:41.529Z,9.27
2023-03-11T20:46:15.519Z,9.23
2023-03-11T20:48:49.914Z,9.34
2023-03-11T20:51:25.987Z,9.29
2023-03-11T20:54:00.393Z,9.17
2023-03-11T20:56:35.394Z,9.30
2023-03-11T20:59:09.347Z,9.37
2023-03-11T21:01:43.538Z,9.41
2023-03-11T21:04:17.554Z,9.26
2023-03-11T21:06:53.130Z,9.23
2023-03-11T21:09:27.352Z,9.20
2023-03-11T21:12:02.168Z,9.20
2023-03-11T21:14:36.947Z,9.14
2023-03-11T21:17:10.995Z,9.02
2023-03-11T21:19:44.271Z,8.99
2023-03-11T21:22:17.561Z,8.93
2023-03-11T21:24:55.518Z,8.80
2023-03-11T21:27:29.210Z,8.72
2023-03-11T21:30:03.343Z,8.52
2023-03-11T21:32:37.766Z,8.58
2023-03-11T21:35:11.582Z,8.49
2023-03-11T21:37:46.813Z,8.53
2023-03-11T21:40:20.740Z,8.60
2023-03-11T21:42:54.815Z,8.65
2023-03-11T21:45:28.684Z,8.64
2023-03-11T21:48:07.931Z,8.55
2023-03-11T21:50:42.937Z,8.48
2023-03-11T21:53:17.085Z,8.27
2023-03-11T21:55:51.665Z,8.21
2023-03-11T21:58:25.094Z,8.20
2023-03-11T22:00:58.479Z,8.13
2023-03-11T22:03:36.489Z,8.07
2023-03-11T22:06:12.400Z,7.93
2023-03-11T22:08:45.645Z,7.88
2023-03-11T22:11:20.940Z,7.84
2023-03-11T22:13:56.643Z,7.69
2023-03-11T22:16:30.513Z,7.63
2023-03-11T22:19:05.861Z,7.46
2023-03-11T22:21:40.157Z,7.39
2023-03-11T22:24:13.578Z,7.34
2023-03-11T22:26:47.341Z,7.18
2023-03-11T22:29:21.427Z,7.14
2023-03-11T22:31:54.882Z,7.09
2023-03-11T22:34:28.528Z,6.59
2023-03-11T22:37:02.398Z,6.54
2023-03-11T22:39:35.370Z,6.27
2023-03-11T22:42:08.329Z,6.13
2023-03-11T22:44:41.186Z,5.91
2023-03-11T22:47:14.786Z,5.73
2023-03-11T22:49:47.862Z,5.68
2023-03-11T22:52:21.024Z,5.63
2023-03-11T22:54:54.229Z,5.32
2023-03-11T22:57:27.503Z,5.32
2023-03-11T23:00:00.539Z,5.27
2023-03-11T23:02:33.722Z,5.20
2023-03-11T23:05:07.841Z,5.14
2023-03-11T23:07:41.363Z,5.05
2023-03-11T23:10:17.210Z,5.15
2023-03-11T23:12:52.614Z,5.16
2023-03-11T23:15:26.757Z,5.02
2023-03-11T23:18:00.109Z,5.03
2023-03-11T23:20:36.620Z,5.03
2023-03-11T23:23:10.548Z,5.07
2023-03-11T23:25:44.372Z,4.89
2023-03-11T23:28:17.042Z,4.80
2023-03-11T23:30:50.224Z,4.78
2023-03-11T23:33:23.899Z,4.66
2023-03-11T23:35:57.056Z,4.63
2023-03-11T23:38:30.262Z,4.58
2023-03-11T23:41:07.130Z,4.51
2023-03-11T23:43:42.540Z,4.58
2023-03-11T23:46:17.086Z,4.47
2023-03-11T23:48:50.316Z,4.51
2023-03-11T23:51:24.453Z,4.31
2023-03-11T23:53:57.644Z,4.25
2023-03-11T23:56:32.391Z,4.30
2023-03-11T23:59:05.767Z,4.06
